createdAt,value
2023-04-09T00:00:16.846Z,7.35
2023-04-09T00:02:43.965Z,7.39
2023-04-09T00:05:11.284Z,7.37
2023-04-09T00:07:38.378Z,7.42
2023-04-09T00:10:06.311Z,7.40
2023-04-09T00:12:33.268Z,7.41
2023-04-09T00:15:00.264Z,7.46
2023-04-09T00:17:27.251Z,7.44
2023-04-09T00:19:54.443Z,7.41
2023-04-09T00:22:21.517Z,7.41
2023-04-09T00:24:48.475Z,7.39
2023-04-09T00:27:15.599Z,7.37
2023-04-09T00:29:42.735Z,7.38
2023-04-09T00:32:10.525Z,7.38
2023-04-09T00:34:38.948Z,7.42
2023-04-09T00:37:07.009Z,7.41
2023-04-09T00:39:34.094Z,7.44
2023-04-09T00:42:04.869Z,7.44
2023-04-09T00:44:31.818Z,7.48
2023-04-09T00:47:00.842Z,7.50
2023-04-09T00:49:27.821Z,7.49
2023-04-09T00:51:54.988Z,7.51
2023-04-09T00:54:22.172Z,7.51
2023-04-09T00:56:49.446Z,7.51
2023-04-09T00:59:16.914Z,7.51
2023-04-09T01:01:43.880Z,7.46
2023-04-09T01:04:11.252Z,7.49
2023-04-09T01:07:11.153Z,7.50
2023-04-09T01:09:43.677Z,7.48
2023-04-09T01:12:36.930Z,7.50
2023-04-09T01:15:08.831Z,7.45
2023-04-09T01:17:49.134Z,7.47
2023-04-09T01:20:22.989Z,7.48
2023-04-09T01:22:50.290Z,7.50
2023-04-09T01:25:17.978Z,7.47
2023-04-09T01:28:17.835Z,7.46
2023-04-09T01:30:50.040Z,7.46
2023-04-09T01:33:19.167Z,7.47
2023-04-09T01:35:48.895Z,7.48
2023-04-09T01:38:19.968Z,7.47
2023-04-09T01:40:47.827Z,7.49
2023-04-09T01:43:15.857Z,7.51
2023-04-09T01:45:45.660Z,7.52
2023-04-09T01:48:14.316Z,7.56
2023-04-09T01:50:41.845Z,7.57
2023-04-09T01:53:09.266Z,7.61
2023-04-09T01:55:36.183Z,7.64
2023-04-09T01:58:03.686Z,7.59
2023-04-09T02:00:40.289Z,7.64
2023-04-09T02:03:11.547Z,7.66
2023-04-09T02:05:44.680Z,7.68
2023-04-09T02:08:19.557Z,7.70
2023-04-09T02:10:55.625Z,7.71
2023-04-09T02:13:24.674Z,7.71
2023-04-09T02:15:56.654Z,7.71
2023-04-09T02:18:29.030Z,7.67
2023-04-09T02:20:57.703Z,7.74
2023-04-09T02:23:25.641Z,7.73
2023-04-09T02:25:54.022Z,7.73
2023-04-09T02:28:21.178Z,7.72
2023-04-09T02:30:48.227Z,7.76
2023-04-09T02:33:15.409Z,7.77
2023-04-09T02:35:42.455Z,7.76
2023-04-09T02:38:14.664Z,7.75
2023-04-09T02:40:41.699Z,7.76
2023-04-09T02:43:09.954Z,7.75
2023-04-09T02:45:37.406Z,7.74
2023-04-09T02:48:04.528Z,7.75
2023-04-09T02:50:35.062Z,7.74
2023-04-09T02:53:03.032Z,7.73
2023-04-09T02:55:30.466Z,7.73
2023-04-09T02:57:57.438Z,7.74
2023-04-09T03:00:24.614Z,7.72
2023-04-09T03:02:52.297Z,7.65
2023-04-09T03:05:19.362Z,7.69
2023-04-09T03:07:47.463Z,7.70
2023-04-09T03:10:14.489Z,7.70
2023-04-09T03:12:41.596Z,7.69
2023-04-09T03:15:09.258Z,7.66
2023-04-09T03:17:36.144Z,7.68
2023-04-09T03:20:03.515Z,7.67
2023-04-09T03:22:39.975Z,7.68
2023-04-09T03:25:27.450Z,7.69
2023-04-09T03:27:55.598Z,7.70
2023-04-09T03:30:42.871Z,7.71
2023-04-09T03:33:10.497Z,7.73
2023-04-09T03:35:47.783Z,7.75
2023-04-09T03:38:16.239Z,7.76
2023-04-09T03:40:43.248Z,7.78
2023-04-09T03:43:10.359Z,7.76
2023-04-09T03:45:39.670Z,7.76
2023-04-09T03:48:17.294Z,7.84
2023-04-09T03:50:44.693Z,7.87
2023-04-09T03:53:14.989Z,7.90
2023-04-09T03:55:42.596Z,7.94
2023-04-09T03:58:16.828Z,7.97
2023-04-09T04:00:43.852Z,8.02
2023-04-09T04:03:26.835Z,8.12
2023-04-09T04:06:07.353Z,8.24
2023-04-09T04:08:51.335Z,8.26
2023-04-09T04:11:21.465Z,8.36
2023-04-09T04:13:52.232Z,8.42
2023-04-09T04:16:19.347Z,8.51
2023-04-09T04:18:46.356Z,8.56
2023-04-09T04:21:14.808Z,8.64
2023-04-09T04:23:45.327Z,8.71
2023-04-09T04:26:22.787Z,8.76
2023-04-09T04:28:50.215Z,8.80
2023-04-09T04:31:31.469Z,8.82
2023-04-09T04:33:59.882Z,8.84
2023-04-09T04:36:27.313Z,8.84
2023-04-09T04:38:54.471Z,8.91
2023-04-09T04:41:30.873Z,8.99
2023-04-09T04:44:08.415Z,9.09
2023-04-09T04:46:35.801Z,9.19
2023-04-09T04:49:02.961Z,9.35
2023-04-09T04:51:32.406Z,9.44
2023-04-09T04:54:07.051Z,9.53
2023-04-09T04:56:34.343Z,9.60
2023-04-09T04:59:07.128Z,9.66
2023-04-09T05:01:46.680Z,9.68
2023-04-09T05:04:14.001Z,9.70
2023-04-09T05:06:41.217Z,9.75
2023-04-09T05:09:12.845Z,9.80
2023-04-09T05:11:48.337Z,9.94
2023-04-09T05:14:21.570Z,10.03
2023-04-09T05:16:49.159Z,10.16
2023-04-09T05:19:18.148Z,10.33
2023-04-09T05:21:47.225Z,10.47
2023-04-09T05:24:20.561Z,10.64
2023-04-09T05:26:47.495Z,10.73
2023-04-09T05:29:14.648Z,10.79
2023-04-09T05:31:43.223Z,10.86
2023-04-09T05:34:24.194Z,10.98
2023-04-09T05:36:54.601Z,11.08
2023-04-09T05:39:23.405Z,11.14
2023-04-09T05:41:52.625Z,11.26
2023-04-09T05:44:31.449Z,11.41
2023-04-09T05:47:12.508Z,11.53
2023-04-09T05:49:48.975Z,11.58
2023-04-09T05:52:17.658Z,11.61
2023-04-09T05:54:44.523Z,11.59
2023-04-09T05:57:15.104Z,11.54
2023-04-09T05:59:45.836Z,11.45
2023-04-09T06:02:12.804Z,11.39
2023-04-09T06:04:40.026Z,11.34
2023-04-09T06:07:07.463Z,11.31
2023-04-09T06:09:36.098Z,11.30
2023-04-09T06:12:03.000Z,11.31
2023-04-09T06:14:32.938Z,11.31
2023-04-09T06:17:00.393Z,11.29
2023-04-09T06:19:27.725Z,11.31
2023-04-09T06:21:54.798Z,11.36
2023-04-09T06:24:21.788Z,11.44
2023-04-09T06:26:49.130Z,11.53
2023-04-09T06:29:16.193Z,11.62
2023-04-09T06:31:43.345Z,11.76
2023-04-09T06:34:11.221Z,11.92
2023-04-09T06:36:40.493Z,12.05
2023-04-09T06:39:07.621Z,12.19
2023-04-09T06:41:34.559Z,12.27
2023-04-09T06:44:09.808Z,12.35
2023-04-09T06:46:36.839Z,12.47
2023-04-09T06:49:03.865Z,12.57
2023-04-09T06:51:30.787Z,12.70
2023-04-09T06:53:57.808Z,12.78
2023-04-09T06:56:25.092Z,12.83
2023-04-09T06:58:52.256Z,12.91
2023-04-09T07:01:20.284Z,12.91
2023-04-09T07:03:47.373Z,12.94
2023-04-09T07:06:14.358Z,12.93
2023-04-09T07:08:41.359Z,13.00
2023-04-09T07:11:08.695Z,13.06
2023-04-09T07:13:36.007Z,13.18
2023-04-09T07:16:03.075Z,13.32
2023-04-09T07:18:31.177Z,13.48
2023-04-09T07:20:58.273Z,13.58
2023-04-09T07:23:26.163Z,13.66
2023-04-09T07:25:53.531Z,13.68
2023-04-09T07:28:20.652Z,13.71
2023-04-09T07:30:47.725Z,13.76
2023-04-09T07:33:14.672Z,13.73
2023-04-09T07:35:42.322Z,13.71
2023-04-09T07:38:09.333Z,13.74
2023-04-09T07:40:36.865Z,13.75
2023-04-09T07:43:04.840Z,13.78
2023-04-09T07:45:31.800Z,13.74
2023-04-09T07:47:58.962Z,13.72
2023-04-09T07:50:26.251Z,13.61
2023-04-09T07:52:53.263Z,13.52
2023-04-09T07:55:20.553Z,13.47
2023-04-09T07:57:48.642Z,13.42
2023-04-09T08:00:16.343Z,13.43
2023-04-09T08:02:44.100Z,13.45
2023-04-09T08:05:11.848Z,13.52
2023-04-09T08:07:39.021Z,13.59
2023-04-09T08:10:07.003Z,13.62
2023-04-09T08:12:34.570Z,13.69
2023-04-09T08:15:03.742Z,13.76
2023-04-09T08:17:31.230Z,13.83
2023-04-09T08:19:58.283Z,13.88
2023-04-09T08:22:25.416Z,13.94
2023-04-09T08:24:53.600Z,14.00
2023-04-09T08:27:21.531Z,14.07
2023-04-09T08:29:48.498Z,14.17
2023-04-09T08:32:16.060Z,14.26
2023-04-09T08:34:43.221Z,14.35
2023-04-09T08:37:10.247Z,14.38
2023-04-09T08:39:37.245Z,14.40
2023-04-09T08:42:07.316Z,14.40
2023-04-09T08:44:34.408Z,14.43
2023-04-09T08:47:02.740Z,14.46
2023-04-09T08:49:29.755Z,14.45
2023-04-09T08:51:57.121Z,14.51
2023-04-09T08:54:26.876Z,14.48
2023-04-09T08:56:53.919Z,14.44
2023-04-09T08:59:20.977Z,14.42
2023-04-09T09:01:52.942Z,14.43
2023-04-09T09:04:20.573Z,14.40
2023-04-09T09:06:47.717Z,14.39
2023-04-09T09:09:16.387Z,14.38
2023-04-09T09:11:48.675Z,14.38
2023-04-09T09:14:20.037Z,14.43
2023-04-09T09:16:56.403Z,14.53
2023-04-09T09:19:26.294Z,14.60
2023-04-09T09:21:57.536Z,14.63
2023-04-09T09:24:24.791Z,14.65
2023-04-09T09:26:52.457Z,14.69
2023-04-09T09:29:20.228Z,14.68
2023-04-09T09:31:56.778Z,14.75
2023-04-09T09:34:25.673Z,14.81
2023-04-09T09:36:52.948Z,14.87
2023-04-09T09:39:20.223Z,14.91
2023-04-09T09:41:48.910Z,14.97
2023-04-09T09:44:33.136Z,15.14
2023-04-09T09:47:03.724Z,15.21
2023-04-09T09:49:30.794Z,15.30
2023-04-09T09:52:00.780Z,15.40
2023-04-09T09:54:36.443Z,15.52
2023-04-09T09:57:07.795Z,15.63
2023-04-09T09:59:39.033Z,15.76
2023-04-09T10:02:08.853Z,15.90
2023-04-09T10:04:36.811Z,16.01
2023-04-09T10:07:08.385Z,16.07
2023-04-09T10:09:46.811Z,16.18
2023-04-09T10:12:14.219Z,16.23
2023-04-09T10:14:42.844Z,16.20
2023-04-09T10:17:10.131Z,16.26
2023-04-09T10:19:54.908Z,16.35
2023-04-09T10:22:27.059Z,16.47
2023-04-09T10:24:55.940Z,16.64
2023-04-09T10:27:22.921Z,16.83
2023-04-09T10:29:52.234Z,16.96
2023-04-09T10:32:26.677Z,17.07
2023-04-09T10:34:58.573Z,17.22
2023-04-09T10:37:27.582Z,17.34
2023-04-09T10:39:54.846Z,17.44
2023-04-09T10:42:33.042Z,17.38
2023-04-09T10:45:16.913Z,17.31
2023-04-09T10:47:44.362Z,17.31
2023-04-09T10:50:21.808Z,17.52
2023-04-09T10:52:59.773Z,17.79
2023-04-09T10:55:38.448Z,18.04
2023-04-09T10:58:12.770Z,18.17
2023-04-09T11:00:43.477Z,18.35
2023-04-09T11:03:30.697Z,18.47
2023-04-09T11:06:11.264Z,18.40
2023-04-09T11:08:38.969Z,18.32
2023-04-09T11:11:06.294Z,18.15
2023-04-09T11:13:34.503Z,17.89
2023-04-09T11:16:04.245Z,17.60
2023-04-09T11:18:34.024Z,17.32
2023-04-09T11:21:06.069Z,17.04
2023-04-09T11:23:33.943Z,16.84
2023-04-09T11:26:02.152Z,16.64
2023-04-09T11:28:29.151Z,16.49
2023-04-09T11:30:56.197Z,16.29
2023-04-09T11:33:23.421Z,16.10
2023-04-09T11:35:51.306Z,15.94
2023-04-09T11:38:18.276Z,15.85
2023-04-09T11:40:48.925Z,15.80
2023-04-09T11:43:17.092Z,15.79
2023-04-09T11:45:44.964Z,15.84
2023-04-09T11:48:13.122Z,15.91
2023-04-09T11:50:40.770Z,16.04
2023-04-09T11:53:20.941Z,16.24
2023-04-09T11:55:51.645Z,16.37
2023-04-09T11:58:22.299Z,16.55
2023-04-09T12:00:49.239Z,16.77
2023-04-09T12:03:16.855Z,16.88
2023-04-09T12:05:50.926Z,17.01
2023-04-09T12:08:23.944Z,17.20
2023-04-09T12:10:53.674Z,17.59
2023-04-09T12:13:21.709Z,18.06
2023-04-09T12:15:50.201Z,18.63
2023-04-09T12:18:17.740Z,18.95
2023-04-09T12:20:47.668Z,18.96
2023-04-09T12:23:16.055Z,18.92
2023-04-09T12:25:45.380Z,18.79
2023-04-09T12:28:15.842Z,18.60
2023-04-09T12:30:43.308Z,18.31
2023-04-09T12:33:11.387Z,18.03
2023-04-09T12:35:38.916Z,17.73
2023-04-09T12:38:06.274Z,17.40
2023-04-09T12:40:33.603Z,17.14
2023-04-09T12:43:00.480Z,16.90
2023-04-09T12:45:28.600Z,16.67
2023-04-09T12:47:55.631Z,16.48
2023-04-09T12:50:22.719Z,16.29
2023-04-09T12:52:50.507Z,16.09
2023-04-09T12:55:17.645Z,15.94
2023-04-09T12:57:47.257Z,15.76
2023-04-09T13:00:15.094Z,15.64
2023-04-09T13:02:42.454Z,15.46
2023-04-09T13:05:09.957Z,15.31
2023-04-09T13:07:38.041Z,15.16
2023-04-09T13:10:05.546Z,15.01
2023-04-09T13:12:32.699Z,14.90
2023-04-09T13:14:59.646Z,14.76
2023-04-09T13:17:26.719Z,14.67
2023-04-09T13:19:53.896Z,14.56
2023-04-09T13:22:21.014Z,14.40
2023-04-09T13:24:47.960Z,14.23
2023-04-09T13:27:16.570Z,14.13
2023-04-09T13:29:43.686Z,14.06
2023-04-09T13:32:11.309Z,14.00
2023-04-09T13:34:39.162Z,13.98
2023-04-09T13:37:06.300Z,13.92
2023-04-09T13:39:33.378Z,13.90
2023-04-09T13:42:03.629Z,13.87
2023-04-09T13:44:35.391Z,13.86
2023-04-09T13:47:02.577Z,13.79
2023-04-09T13:49:30.962Z,13.72
2023-04-09T13:51:58.339Z,13.61
2023-04-09T13:54:25.392Z,13.50
2023-04-09T13:56:52.354Z,13.43
2023-04-09T13:59:34.052Z,13.39
2023-04-09T14:02:19.730Z,13.27
2023-04-09T14:04:54.452Z,13.24
2023-04-09T14:07:46.153Z,13.14
2023-04-09T14:10:13.838Z,13.15
2023-04-09T14:13:05.298Z,13.13
2023-04-09T14:16:54.220Z,13.12
2023-04-09T14:21:20.197Z,13.02
2023-04-09T14:24:55.571Z,13.21
2023-04-09T14:28:11.207Z,13.26
2023-04-09T14:31:20.462Z,13.34
2023-04-09T15:54:04.323Z,14.04
2023-04-09T15:57:23.416Z,13.95
2023-04-09T16:06:00.120Z,13.72
2023-04-09T16:30:00.226Z,12.66
2023-04-09T17:20:14.956Z,11.55
2023-04-09T17:39:07.308Z,11.14
2023-04-09T18:03:32.343Z,10.65
2023-04-09T18:21:01.128Z,10.27
2023-04-09T18:28:30.765Z,10.06
2023-04-09T18:32:22.790Z,10.15
2023-04-09T18:35:29.107Z,10.11
2023-04-09T18:43:15.148Z,10.05
2023-04-09T18:46:43.691Z,9.81
2023-04-09T18:49:25.349Z,9.99
2023-04-09T18:52:13.685Z,9.96
2023-04-09T18:54:57.028Z,9.88
2023-04-09T18:58:16.214Z,9.82
2023-04-09T19:00:43.807Z,9.83
2023-04-09T19:03:23.660Z,9.80
2023-04-09T19:06:15.583Z,9.78
2023-04-09T19:09:04.753Z,9.76
2023-04-09T19:11:39.897Z,9.75
2023-04-09T19:14:11.719Z,9.74
2023-04-09T19:16:48.970Z,9.70
2023-04-09T19:19:18.000Z,9.65
2023-04-09T19:21:53.906Z,9.68
2023-04-09T19:24:23.412Z,9.66
2023-04-09T19:26:53.736Z,9.61
2023-04-09T19:29:26.744Z,9.57
2023-04-09T19:31:56.195Z,9.53
2023-04-09T19:34:24.677Z,9.50
2023-04-09T19:36:54.265Z,9.49
2023-04-09T19:39:24.007Z,9.46
2023-04-09T19:41:54.030Z,9.43
2023-04-09T19:44:24.237Z,9.41
2023-04-09T19:47:15.508Z,9.39
2023-04-09T19:49:45.745Z,9.36
2023-04-09T19:52:14.331Z,9.37
2023-04-09T19:54:44.912Z,9.37
2023-04-09T19:57:16.835Z,9.36
2023-04-09T19:59:50.026Z,9.35
2023-04-09T20:02:21.267Z,9.31
2023-04-09T20:04:52.781Z,9.29
2023-04-09T20:07:31.681Z,9.26
2023-04-09T20:10:09.131Z,9.23
2023-04-09T20:12:44.715Z,9.22
2023-04-09T20:15:15.716Z,9.17
2023-04-09T20:17:43.515Z,9.13
2023-04-09T20:20:12.068Z,9.09
2023-04-09T20:22:43.385Z,9.07
2023-04-09T20:25:16.652Z,9.04
2023-04-09T20:27:50.039Z,8.99
2023-04-09T20:30:20.155Z,9.00
2023-04-09T20:32:49.946Z,8.99
2023-04-09T20:35:23.213Z,8.97
2023-04-09T20:38:01.578Z,8.97
2023-04-09T20:40:38.063Z,8.96
2023-04-09T20:43:10.587Z,8.95
2023-04-09T20:45:40.361Z,8.95
2023-04-09T20:48:12.776Z,8.93
2023-04-09T20:50:42.644Z,8.93
2023-04-09T20:53:10.397Z,8.90
2023-04-09T20:55:46.064Z,8.92
2023-04-09T20:58:18.065Z,8.91
2023-04-09T21:00:59.215Z,8.90
2023-04-09T21:03:39.186Z,8.88
2023-04-09T21:06:11.222Z,8.86
2023-04-09T21:08:49.758Z,8.87
2023-04-09T21:11:24.915Z,8.87
2023-04-09T21:13:57.667Z,8.77
2023-04-09T21:16:33.192Z,8.89
2023-04-09T21:19:07.240Z,8.89
2023-04-09T21:21:35.394Z,8.90
2023-04-09T21:24:05.155Z,8.93
2023-04-09T21:26:49.514Z,8.96
2023-04-09T21:29:28.837Z,9.01
2023-04-09T21:32:08.450Z,9.00
2023-04-09T22:05:45.257Z,9.33
2023-04-09T22:09:27.455Z,9.36
2023-04-09T22:15:01.825Z,9.39
2023-04-09T23:11:29.791Z,9.21
